ADDS METAR Data INFO
IDs: Format: Raw Decoded Include TAF

Data at: 0434 UTC 28 Jul 2017

KGVT 280415Z AUTO 16005KT 10SM CLR 30/22 A2993 RMK AO2
KGVT 280355Z AUTO 16004KT 10SM CLR 29/22 A2992 RMK AO2
KGVT 280335Z AUTO 16005KT 10SM CLR 29/22 A2993 RMK AO2
KGVT 280315Z AUTO 16006KT 10SM CLR 29/22 A2992 RMK AO2
KGVT 280255Z AUTO 16004KT 10SM CLR 28/23 A2991 RMK AO2
KGVT 280235Z AUTO 16004KT 10SM CLR 30/22 A2991 RMK AO2
KGVT 280215Z AUTO 16004KT 10SM CLR 30/22 A2990 RMK AO2
KGVT 280155Z AUTO 16003KT 10SM CLR 30/22 A2990 RMK AO2
KGVT 280135Z AUTO 16005KT 10SM CLR 31/22 A2990 RMK AO2
KGVT 280115Z AUTO 17005KT 10SM CLR 32/21 A2990 RMK AO2
KGVT 280055Z AUTO 17006KT 10SM CLR 33/21 A2990 RMK AO2
KGVT 280035Z AUTO 17006KT 10SM CLR 34/20 A2990 RMK AO2
KGVT 280015Z AUTO 17008KT 10SM CLR 35/20 A2990 RMK AO2
KGVT 272355Z AUTO 18009G14KT 10SM CLR 36/19 A2990 RMK AO2
KGVT 272335Z AUTO 16008KT 10SM CLR 36/20 A2991 RMK AO2
KGVT 272315Z AUTO 19006KT 10SM CLR 37/18 A2991 RMK AO2
KGVT 272255Z AUTO 19008KT 10SM CLR 37/18 A2991 RMK AO2
KGVT 272235Z AUTO 16007KT 10SM CLR 37/18 A2992 RMK AO2
KGVT 272215Z AUTO 21003KT 10SM CLR 37/18 A2993 RMK AO2
KGVT 272155Z AUTO 21006KT 10SM CLR 37/18 A2994 RMK AO2
KGVT 272135Z AUTO 20005KT 10SM CLR 37/18 A2994 RMK AO2
KGVT 272115Z AUTO 23006KT 10SM CLR 37/18 A2996 RMK AO2
KGVT 272055Z AUTO 21004KT 10SM CLR 37/18 A2997 RMK AO2
KGVT 272035Z AUTO 21010G15KT 10SM CLR 37/17 A2997 RMK AO2
KGVT 272015Z AUTO 25005KT 10SM CLR 36/19 A2998 RMK AO2
KGVT 271955Z AUTO 24006G18KT 10SM CLR 37/20 A2998 RMK AO2
KGVT 271935Z AUTO 19008KT 10SM CLR 36/20 A2999 RMK AO2
KGVT 271915Z AUTO 20006KT 10SM CLR 36/20 A2999 RMK AO2
KGVT 271855Z AUTO 21005KT 10SM CLR 36/20 A3000 RMK AO2
KGVT 271835Z AUTO 20004KT 10SM CLR 35/21 A3001 RMK AO2
KGVT 271815Z AUTO 21006KT 10SM CLR 35/21 A3002 RMK AO2
KGVT 271755Z AUTO 24005KT 10SM CLR 35/21 A3002 RMK AO2
KGVT 271735Z AUTO 18005KT 10SM CLR 34/21 A3003 RMK AO2
KGVT 271715Z AUTO 20008KT 10SM CLR 34/22 A3003 RMK AO2
KGVT 271655Z AUTO 21006KT 10SM CLR 33/21 A3003 RMK AO2
KGVT 271635Z AUTO 21007KT 10SM CLR 33/22 A3004 RMK AO2
KGVT 271615Z AUTO 22006KT 10SM CLR 32/21 A3004 RMK AO2
KGVT 271555Z AUTO 24008KT 10SM CLR 32/21 A3004 RMK AO2
KGVT 271535Z AUTO 23006KT 10SM CLR 32/21 A3005 RMK AO2
KGVT 271515Z AUTO 23009KT 10SM CLR 32/22 A3005 RMK AO2
KGVT 271455Z AUTO 22009KT 195V255 10SM CLR 31/22 A3005 RMK AO2
KGVT 271435Z AUTO 23007G14KT 10SM CLR 31/22 A3005 RMK AO2
KGVT 271415Z AUTO 22009G14KT 10SM CLR 30/22 A3005 RMK AO2
KGVT 271355Z AUTO 22007KT 10SM CLR 30/22 A3005 RMK AO2
KGVT 271335Z AUTO 21006KT 10SM CLR 28/22 A3004 RMK AO2
KGVT 271315Z AUTO 20007KT 10SM CLR 28/22 A3004 RMK AO2
KGVT 271255Z AUTO 20006KT 10SM CLR 27/22 A3003 RMK AO2
KGVT 271235Z AUTO 19006KT 10SM CLR 27/22 A3003 RMK AO2
KGVT 271215Z AUTO 20006KT 10SM CLR 27/22 A3003 RMK AO2
KGVT 271155Z AUTO 19007KT 10SM CLR 27/22 A3002 RMK AO2
KGVT 271135Z AUTO 20004KT 10SM CLR 27/22 A3002 RMK AO2
KGVT 271115Z AUTO 20006KT 10SM CLR 27/22 A3002 RMK AO2
KGVT 271055Z AUTO 20008KT 10SM CLR 27/22 A3002 RMK AO2
KGVT 271035Z AUTO 19008KT 10SM CLR 27/22 A3002 RMK AO2
KGVT 271015Z AUTO 19009KT 10SM CLR 27/22 A3001 RMK AO2
KGVT 270955Z AUTO 19008KT 10SM CLR 27/22 A3002 RMK AO2
KGVT 270935Z AUTO 19007KT 10SM CLR 28/22 A3001 RMK AO2 LTG DSNT W
KGVT 270915Z AUTO 19009KT 10SM CLR 28/22 A3001 RMK AO2
KGVT 270855Z AUTO 19008KT 10SM CLR 28/22 A3001 RMK AO2
KGVT 270835Z AUTO 19007KT 10SM CLR 28/22 A3002 RMK AO2
KGVT 270815Z AUTO 19007KT 10SM CLR 28/22 A3002 RMK AO2
KGVT 270755Z AUTO 19006KT 10SM CLR 28/22 A3002 RMK AO2
KGVT 270735Z AUTO 18007KT 10SM CLR 29/22 A3001 RMK AO2
KGVT 270715Z AUTO 19008KT 10SM CLR 30/22 A3000 RMK AO2
KGVT 270655Z AUTO 19008KT 10SM CLR 30/22 A3000 RMK AO2
KGVT 270635Z AUTO 18009KT 10SM CLR 30/22 A3000 RMK AO2
KGVT 270615Z AUTO 17011KT 10SM CLR 30/22 A3000 RMK AO2
KGVT 270555Z AUTO 17009G16KT 10SM CLR 30/22 A3001 RMK AO2
KGVT 270535Z AUTO 16010G15KT 10SM CLR 30/22 A3001 RMK AO2
KGVT 270515Z AUTO 16008KT 10SM CLR 31/23 A3000 RMK AO2
KGVT 270455Z AUTO 16008KT 10SM CLR 31/23 A3000 RMK AO2
KGVT 270435Z AUTO 16010G14KT 10SM CLR 31/23 A3000 RMK AO2
KGVT 270415Z AUTO 15007KT 10SM CLR 30/23 A3000 RMK AO2
KGVT 270355Z AUTO 14007KT 10SM CLR 30/23 A3001 RMK AO2
KGVT 270335Z AUTO 13006KT 10SM CLR 30/23 A3002 RMK AO2
KGVT 270315Z AUTO 14007KT 10SM CLR 29/23 A3001 RMK AO2
KGVT 270255Z AUTO 13005KT 10SM CLR 29/23 A3001 RMK AO2
KGVT 270235Z AUTO 13005KT 10SM CLR 29/23 A3001 RMK AO2
KGVT 270215Z AUTO 13003KT 10SM CLR 30/23 A3000 RMK AO2
KGVT 270155Z AUTO 15003KT 10SM CLR 31/23 A3001 RMK AO2
KGVT 270135Z AUTO 15003KT 10SM CLR 31/23 A3001 RMK AO2
KGVT 270115Z AUTO 14005KT 10SM CLR 32/23 A3000 RMK AO2
KGVT 270055Z AUTO 14005KT 10SM CLR 33/22 A3000 RMK AO2
KGVT 270035Z AUTO 15006KT 10SM CLR 35/21 A2999 RMK AO2
KGVT 270015Z AUTO 14006KT 10SM CLR 35/21 A2999 RMK AO2
KGVT 262355Z AUTO 15008KT 10SM CLR 35/21 A2999 RMK AO2
KGVT 262335Z AUTO 14010KT 10SM SCT060 35/21 A2999 RMK AO2
KGVT 262315Z AUTO 15007KT 10SM SCT060 36/22 A2999 RMK AO2
KGVT 262255Z AUTO 15008KT 10SM SCT055 36/21 A2999 RMK AO2
KGVT 262235Z AUTO 14009KT 10SM CLR 36/21 A2999 RMK AO2
KGVT 262215Z AUTO 16008KT 10SM SCT050 35/21 A3001 RMK AO2
KGVT 262155Z AUTO 16008G14KT 10SM BKN050 36/21 A3001 RMK AO2
KGVT 262135Z AUTO 17007KT 10SM SCT050 37/21 A3001 RMK AO2
KGVT 262115Z AUTO 17008KT 10SM CLR 36/20 A3002 RMK AO2
KGVT 262055Z AUTO 17008KT 10SM SCT050 36/21 A3002 RMK AO2
KGVT 262035Z AUTO 17009G15KT 10SM SCT050 SCT060 36/21 A3003 RMK AO2
KGVT 262015Z AUTO 17009KT 10SM SCT048 SCT060 BKN065 36/22 A3004 RMK AO2
KGVT 261955Z AUTO 19006KT 10SM SCT046 SCT060 36/21 A3004 RMK AO2
KGVT 261935Z AUTO 18010G15KT 10SM SCT044 SCT065 SCT070 36/22 A3005 RMK AO2
KGVT 261915Z AUTO 20009KT 10SM SCT040 SCT045 SCT065 35/22 A3006 RMK AO2
KGVT 261855Z AUTO 20011KT 10SM BKN040 BKN045 BKN065 35/23 A3008 RMK AO2
KGVT 261835Z AUTO 21009G14KT 10SM SCT038 BKN044 35/23 A3008 RMK AO2
KGVT 261815Z AUTO 21009KT 155V215 10SM BKN034 BKN044 34/23 A3009 RMK AO2
KGVT 261755Z AUTO 22009KT 10SM BKN036 BKN043 33/23 A3009 RMK AO2
KGVT 261735Z AUTO 20012KT 10SM BKN032 BKN038 33/23 A3009 RMK AO2
KGVT 261715Z AUTO 22009KT 10SM BKN032 BKN038 33/23 A3010 RMK AO2
KGVT 261655Z AUTO 22012G17KT 10SM SCT032 BKN038 33/23 A3010 RMK AO2
KGVT 261635Z AUTO 21012KT 10SM CLR 33/23 A3010 RMK AO2